createdAt,value
2023-05-10T00:00:16.064Z,58.95
2023-05-10T00:02:45.980Z,58.90
2023-05-10T00:05:14.724Z,58.17
2023-05-10T00:07:45.773Z,58.27
2023-05-10T00:10:15.207Z,57.93
2023-05-10T00:12:44.413Z,58.25
2023-05-10T00:15:14.659Z,57.82
2023-05-10T00:17:43.347Z,57.71
2023-05-10T00:20:13.779Z,58.92
2023-05-10T00:22:42.534Z,60.04
2023-05-10T00:25:11.824Z,60.26
2023-05-10T00:27:40.555Z,59.76
2023-05-10T00:30:10.653Z,59.60
2023-05-10T00:32:40.721Z,58.81
2023-05-10T00:35:10.687Z,58.33
2023-05-10T00:37:39.375Z,60.20
2023-05-10T00:40:09.778Z,60.98
2023-05-10T00:42:38.515Z,61.17
2023-05-10T00:45:10.266Z,60.21
2023-05-10T00:47:40.738Z,59.56
2023-05-10T00:50:11.330Z,59.56
2023-05-10T00:52:40.100Z,58.96
2023-05-10T00:55:11.832Z,59.91
2023-05-10T00:57:40.934Z,59.92
2023-05-10T01:00:12.232Z,60.05
2023-05-10T01:02:43.906Z,59.53
2023-05-10T01:05:13.033Z,59.66
2023-05-10T01:07:42.137Z,60.09
2023-05-10T01:10:12.874Z,59.99
2023-05-10T01:12:46.314Z,60.13
2023-05-10T01:15:17.161Z,61.52
2023-05-10T01:17:51.122Z,61.05
2023-05-10T01:20:20.197Z,60.83
2023-05-10T01:23:33.398Z,60.52
2023-05-10T01:26:59.589Z,60.52
2023-05-10T01:30:27.609Z,61.45
2023-05-10T01:33:04.091Z,62.92
2023-05-10T01:35:43.324Z,62.55
2023-05-10T01:38:29.256Z,62.32
2023-05-10T01:41:15.236Z,62.67
2023-05-10T01:43:56.418Z,62.87
2023-05-10T01:46:35.596Z,63.45
2023-05-10T01:49:11.563Z,64.69
2023-05-10T01:51:49.359Z,63.76
2023-05-10T01:54:22.506Z,63.41
2023-05-10T01:57:09.931Z,62.84
2023-05-10T01:59:42.684Z,63.04
2023-05-10T02:02:14.356Z,62.53
2023-05-10T02:04:46.894Z,62.07
2023-05-10T02:07:18.407Z,62.15
2023-05-10T02:09:50.033Z,62.20
2023-05-10T02:12:20.294Z,62.16
2023-05-10T02:14:53.793Z,62.02
2023-05-10T02:17:25.274Z,61.81
2023-05-10T02:19:57.864Z,62.25
2023-05-10T02:22:28.812Z,62.20
2023-05-10T02:24:59.940Z,62.43
2023-05-10T02:27:31.771Z,61.85
2023-05-10T02:30:01.218Z,61.87
2023-05-10T02:32:32.078Z,61.86
2023-05-10T02:35:06.158Z,63.00
2023-05-10T02:37:38.984Z,63.86
2023-05-10T02:40:10.794Z,64.16
2023-05-10T02:42:44.554Z,63.83
2023-05-10T02:45:20.547Z,64.12
2023-05-10T02:47:49.605Z,63.83
2023-05-10T02:50:20.522Z,63.92
2023-05-10T02:52:54.005Z,64.27
2023-05-10T02:55:33.357Z,64.78
2023-05-10T02:58:04.751Z,64.56
2023-05-10T03:00:34.468Z,64.61
2023-05-10T03:03:03.431Z,64.31
2023-05-10T03:05:34.219Z,64.70
2023-05-10T03:08:07.176Z,63.89
2023-05-10T03:10:49.985Z,65.00
2023-05-10T03:13:36.469Z,66.30
2023-05-10T03:16:12.820Z,67.09
2023-05-10T03:18:50.549Z,66.90
2023-05-10T03:21:25.227Z,66.00
2023-05-10T03:24:02.165Z,65.73
2023-05-10T03:26:33.143Z,66.40
2023-05-10T03:29:11.562Z,67.44
2023-05-10T03:31:42.027Z,67.50
2023-05-10T03:34:11.595Z,67.13
2023-05-10T03:36:41.708Z,66.61
2023-05-10T03:39:11.541Z,66.08
2023-05-10T03:41:40.544Z,65.54
2023-05-10T03:44:09.614Z,65.46
2023-05-10T03:46:38.378Z,65.08
2023-05-10T03:49:07.153Z,66.07
2023-05-10T03:51:36.028Z,66.80
2023-05-10T03:54:06.613Z,66.87
2023-05-10T03:56:35.930Z,66.72
2023-05-10T03:59:08.321Z,65.86
2023-05-10T04:01:37.595Z,65.95
2023-05-10T04:04:06.567Z,66.20
2023-05-10T04:06:35.413Z,67.50
2023-05-10T04:09:06.449Z,68.37
2023-05-10T04:11:35.101Z,68.99
2023-05-10T04:14:04.091Z,68.50
2023-05-10T04:16:33.135Z,67.76
2023-05-10T04:19:02.775Z,67.37
2023-05-10T04:21:31.551Z,67.17
2023-05-10T04:24:00.423Z,68.09
2023-05-10T04:26:30.751Z,68.17
2023-05-10T04:28:59.545Z,68.55
2023-05-10T04:31:31.559Z,68.49
2023-05-10T04:34:02.647Z,68.20
2023-05-10T04:36:31.437Z,69.01
2023-05-10T04:39:00.295Z,69.30
2023-05-10T04:41:30.569Z,69.49
2023-05-10T04:43:59.276Z,69.74
2023-05-10T04:46:28.029Z,70.34
2023-05-10T04:48:56.744Z,70.37
2023-05-10T04:51:25.510Z,70.07
2023-05-10T04:54:05.363Z,69.83
2023-05-10T04:56:36.471Z,69.33
2023-05-10T04:59:05.278Z,69.70
2023-05-10T05:01:34.025Z,69.89
2023-05-10T05:04:02.727Z,70.56
2023-05-10T05:06:31.492Z,70.20
2023-05-10T05:09:12.815Z,70.57
2023-05-10T05:11:42.939Z,69.80
2023-05-10T05:14:11.820Z,69.56
2023-05-10T05:16:40.633Z,69.55
2023-05-10T05:19:09.518Z,70.46
2023-05-10T05:21:38.420Z,71.00
2023-05-10T05:24:08.876Z,71.89
2023-05-10T05:26:37.830Z,72.13
2023-05-10T05:29:08.217Z,71.36
2023-05-10T05:31:37.112Z,71.99
2023-05-10T05:34:06.052Z,71.78
2023-05-10T05:36:37.056Z,72.24
2023-05-10T05:39:06.417Z,72.73
2023-05-10T05:41:35.165Z,72.36
2023-05-10T05:44:03.826Z,72.47
2023-05-10T05:46:33.887Z,72.64
2023-05-10T05:49:02.734Z,71.85
2023-05-10T05:51:32.245Z,71.78
2023-05-10T05:54:00.957Z,71.68
2023-05-10T05:56:29.553Z,71.45
2023-05-10T05:58:58.272Z,70.56
2023-05-10T06:01:26.945Z,70.54
2023-05-10T06:03:57.123Z,70.14
2023-05-10T06:06:26.504Z,70.05
2023-05-10T06:08:55.197Z,70.01
2023-05-10T06:11:23.973Z,69.45
2023-05-10T06:13:52.612Z,68.65
2023-05-10T06:16:21.309Z,68.16
2023-05-10T06:18:50.339Z,66.02
2023-05-10T06:21:20.467Z,64.71
2023-05-10T06:23:49.176Z,63.70
2023-05-10T06:26:17.852Z,63.90
2023-05-10T06:28:46.570Z,62.57
2023-05-10T06:31:15.321Z,62.04
2023-05-10T06:33:44.075Z,60.23
2023-05-10T06:36:12.822Z,57.48
2023-05-10T06:38:43.047Z,58.47
2023-05-10T06:41:11.887Z,56.35
2023-05-10T06:43:42.260Z,56.96
2023-05-10T06:46:11.154Z,55.51
2023-05-10T06:48:39.893Z,56.09
2023-05-10T06:51:08.588Z,55.32
2023-05-10T06:53:37.257Z,54.51
2023-05-10T06:56:08.161Z,55.41
2023-05-10T06:58:36.865Z,54.35
2023-05-10T07:01:06.218Z,53.46
2023-05-10T07:03:35.194Z,53.18
2023-05-10T07:06:05.430Z,53.70
2023-05-10T07:08:34.312Z,52.00
2023-05-10T07:11:04.728Z,52.26
2023-05-10T07:13:35.028Z,53.02
2023-05-10T07:16:04.113Z,52.50
2023-05-10T07:18:32.867Z,52.37
2023-05-10T07:21:01.598Z,52.34
2023-05-10T07:23:30.688Z,50.09
2023-05-10T07:25:59.515Z,51.36
2023-05-10T07:28:28.199Z,51.02
2023-05-10T07:30:58.808Z,49.74
2023-05-10T07:33:27.506Z,51.80
2023-05-10T07:35:56.150Z,51.18
2023-05-10T07:38:25.455Z,50.38
2023-05-10T07:40:54.087Z,49.51
2023-05-10T07:43:22.813Z,49.38
2023-05-10T07:45:52.786Z,49.29
2023-05-10T07:48:24.842Z,48.61
2023-05-10T07:50:53.508Z,48.59
2023-05-10T07:53:22.159Z,49.23
2023-05-10T07:55:53.816Z,49.35
2023-05-10T07:58:22.542Z,48.30
2023-05-10T08:00:51.379Z,48.24
2023-05-10T08:03:20.187Z,48.55
2023-05-10T08:05:50.390Z,48.62
2023-05-10T08:08:19.351Z,47.81
2023-05-10T08:10:47.923Z,48.30
2023-05-10T08:13:16.546Z,48.28
2023-05-10T08:15:45.261Z,47.78
2023-05-10T08:18:14.055Z,47.40
2023-05-10T08:20:42.808Z,48.22
2023-05-10T08:23:14.792Z,46.93
2023-05-10T08:25:43.534Z,47.18
2023-05-10T08:28:12.213Z,47.53
2023-05-10T08:30:40.941Z,47.08
2023-05-10T08:33:09.709Z,46.79
2023-05-10T08:35:38.600Z,45.72
2023-05-10T08:38:07.274Z,44.88
2023-05-10T08:40:39.400Z,44.84
2023-05-10T08:43:11.077Z,45.03
2023-05-10T08:45:42.732Z,44.65
2023-05-10T08:48:12.863Z,45.00
2023-05-10T08:50:43.994Z,45.12
2023-05-10T08:53:15.119Z,45.26
2023-05-10T08:55:45.440Z,45.16
2023-05-10T08:58:14.160Z,44.87
2023-05-10T09:00:43.458Z,45.82
2023-05-10T09:03:12.805Z,43.35
2023-05-10T09:05:42.426Z,44.04
2023-05-10T09:08:11.570Z,43.58
2023-05-10T09:10:43.286Z,43.16
2023-05-10T09:13:13.940Z,43.99
2023-05-10T09:15:42.761Z,41.93
2023-05-10T09:18:11.579Z,41.61
2023-05-10T09:20:40.216Z,41.81
2023-05-10T09:23:08.977Z,41.86
2023-05-10T09:25:39.600Z,42.13
2023-05-10T09:28:10.788Z,41.24
2023-05-10T09:30:41.389Z,41.72
2023-05-10T09:33:10.050Z,40.88
2023-05-10T09:35:41.176Z,41.25
2023-05-10T09:38:11.439Z,40.46
2023-05-10T09:40:40.306Z,41.11
2023-05-10T09:43:10.093Z,41.32
2023-05-10T09:45:40.289Z,40.42
2023-05-10T09:48:09.117Z,41.33
2023-05-10T09:50:37.925Z,40.31
2023-05-10T09:53:06.654Z,38.00
2023-05-10T09:55:45.872Z,38.29
2023-05-10T09:58:16.266Z,38.07
2023-05-10T10:00:52.330Z,39.06
2023-05-10T10:03:23.714Z,39.83
2023-05-10T10:05:54.369Z,36.12
2023-05-10T10:08:23.143Z,36.11
2023-05-10T10:10:52.229Z,36.71
2023-05-10T10:13:21.271Z,38.07
2023-05-10T10:15:53.150Z,38.33
2023-05-10T10:18:28.071Z,36.58
2023-05-10T10:20:59.140Z,37.73
2023-05-10T10:23:29.401Z,36.11
2023-05-10T10:25:58.596Z,35.92
2023-05-10T10:28:49.638Z,37.20
2023-05-10T10:31:39.901Z,36.65
2023-05-10T10:34:17.866Z,37.79
2023-05-10T10:36:49.214Z,37.43
2023-05-10T10:39:18.204Z,37.03
2023-05-10T10:41:53.851Z,35.36
2023-05-10T10:44:39.171Z,35.85
2023-05-10T10:47:30.785Z,36.60
2023-05-10T10:50:07.929Z,37.00
2023-05-10T10:52:38.422Z,35.03
2023-05-10T10:55:10.474Z,35.59
2023-05-10T10:57:49.523Z,35.44
2023-05-10T11:00:28.173Z,36.52
2023-05-10T11:03:01.464Z,35.64
2023-05-10T11:05:40.620Z,35.70
2023-05-10T11:08:17.236Z,34.96
2023-05-10T11:11:07.813Z,36.11
2023-05-10T11:13:42.918Z,37.63
2023-05-10T11:16:18.702Z,37.21
2023-05-10T11:19:06.155Z,38.30
2023-05-10T11:21:36.565Z,37.62
2023-05-10T11:24:16.256Z,37.61
2023-05-10T11:26:45.876Z,39.09
2023-05-10T11:29:16.023Z,40.03
2023-05-10T11:31:49.654Z,38.15
2023-05-10T11:34:29.396Z,37.36
2023-05-10T11:36:59.125Z,39.05
2023-05-10T11:39:29.825Z,39.45
2023-05-10T11:41:59.243Z,38.66
2023-05-10T11:44:33.120Z,38.26
2023-05-10T11:47:02.526Z,36.62
2023-05-10T11:49:32.930Z,37.85
2023-05-10T11:52:08.749Z,37.49
2023-05-10T11:54:37.638Z,34.93
2023-05-10T11:57:06.716Z,34.29
2023-05-10T11:59:35.472Z,35.63
2023-05-10T12:02:04.366Z,36.01
2023-05-10T12:04:34.961Z,36.28
2023-05-10T12:07:03.867Z,35.69
2023-05-10T12:09:43.316Z,34.98
2023-05-10T12:12:12.964Z,35.83
2023-05-10T12:14:41.770Z,35.97
2023-05-10T12:17:15.226Z,37.06
2023-05-10T12:19:56.823Z,36.51
2023-05-10T12:22:25.687Z,37.99
2023-05-10T12:24:54.469Z,37.98
2023-05-10T12:27:26.201Z,38.95
2023-05-10T12:29:56.032Z,38.99
2023-05-10T12:32:40.922Z,37.23
2023-05-10T12:35:11.316Z,39.81
2023-05-10T12:37:40.915Z,38.11
2023-05-10T12:40:12.888Z,39.35
2023-05-10T12:42:42.616Z,39.49
2023-05-10T12:45:12.547Z,39.59
2023-05-10T12:47:48.747Z,39.51
2023-05-10T12:50:19.253Z,39.62
2023-05-10T12:52:48.107Z,39.77
2023-05-10T12:55:17.277Z,40.16
2023-05-10T12:57:45.987Z,40.00
2023-05-10T13:00:17.296Z,39.96
2023-05-10T13:02:46.310Z,40.31
2023-05-10T13:05:15.298Z,42.72
2023-05-10T13:07:46.251Z,43.87
2023-05-10T13:10:15.293Z,46.53
2023-05-10T13:12:44.282Z,47.61
2023-05-10T13:15:13.146Z,46.92
2023-05-10T13:17:43.750Z,46.13
2023-05-10T13:20:13.743Z,48.17
2023-05-10T13:22:45.429Z,48.52
2023-05-10T13:25:15.212Z,47.63
2023-05-10T13:27:44.000Z,48.02
2023-05-10T13:30:13.425Z,47.35
2023-05-10T13:32:42.132Z,48.69
2023-05-10T13:35:11.395Z,50.23
2023-05-10T13:37:40.090Z,49.46
2023-05-10T13:40:11.644Z,48.58
2023-05-10T13:42:40.768Z,47.98
2023-05-10T13:45:10.839Z,47.42
2023-05-10T13:47:39.684Z,47.47
2023-05-10T13:50:09.629Z,47.89
2023-05-10T13:52:38.412Z,46.26
2023-05-10T13:55:09.699Z,47.43
2023-05-10T13:57:38.521Z,47.60
2023-05-10T14:00:09.306Z,47.79
2023-05-10T14:02:38.289Z,47.88
2023-05-10T14:05:08.192Z,48.68
2023-05-10T14:07:37.031Z,48.27
2023-05-10T14:10:06.534Z,49.77
2023-05-10T14:12:37.352Z,49.69
2023-05-10T14:15:11.419Z,49.29
2023-05-10T14:17:40.934Z,49.95
2023-05-10T14:20:12.522Z,50.80
2023-05-10T14:22:42.308Z,51.26
2023-05-10T14:25:12.703Z,51.44
2023-05-10T14:27:43.882Z,52.04
2023-05-10T14:30:14.245Z,51.18
2023-05-10T14:32:43.281Z,52.13
2023-05-10T14:35:14.488Z,51.99
2023-05-10T14:37:45.059Z,51.99
2023-05-10T14:40:16.239Z,52.00
2023-05-10T14:42:47.490Z,53.27
2023-05-10T14:45:16.992Z,53.36
2023-05-10T14:47:45.936Z,54.08
2023-05-10T14:50:28.226Z,54.53
2023-05-10T14:53:03.870Z,53.92
2023-05-10T14:55:33.944Z,54.54
2023-05-10T14:58:04.885Z,54.29
2023-05-10T15:00:36.461Z,55.13
2023-05-10T15:03:06.338Z,55.03
2023-05-10T15:05:35.631Z,53.55
2023-05-10T15:08:06.659Z,54.16
2023-05-10T15:10:36.077Z,52.77
2023-05-10T15:13:07.066Z,52.03
2023-05-10T15:15:40.172Z,53.31
2023-05-10T15:18:09.632Z,52.18
2023-05-10T15:20:38.835Z,51.37
2023-05-10T15:23:07.878Z,51.98
2023-05-10T15:25:38.384Z,52.15
2023-05-10T15:28:08.720Z,53.71
2023-05-10T15:30:37.767Z,51.76
2023-05-10T15:33:07.318Z,52.69
2023-05-10T15:35:39.277Z,51.94
2023-05-10T15:38:08.284Z,52.84
2023-05-10T15:40:37.046Z,51.63
2023-05-10T15:43:07.502Z,50.44
2023-05-10T15:45:37.762Z,50.92
2023-05-10T15:48:07.558Z,52.31
2023-05-10T15:50:36.389Z,51.00
2023-05-10T15:53:05.133Z,51.21
2023-05-10T15:55:35.363Z,52.13
2023-05-10T15:58:04.252Z,51.90
2023-05-10T16:00:34.880Z,49.82
2023-05-10T16:03:04.058Z,49.70
2023-05-10T16:05:33.876Z,49.73
2023-05-10T16:08:17.114Z,50.65
2023-05-10T16:10:47.449Z,51.62
2023-05-10T16:13:17.039Z,51.55
2023-05-10T16:15:48.719Z,52.45
2023-05-10T16:18:24.764Z,51.72
2023-05-10T16:20:55.651Z,50.32
2023-05-10T16:23:24.372Z,50.11
2023-05-10T16:25:53.721Z,50.00
2023-05-10T16:28:25.389Z,50.07
2023-05-10T16:30:59.965Z,50.62
2023-05-10T16:33:29.902Z,53.03
2023-05-10T16:35:58.661Z,51.83
2023-05-10T16:38:27.617Z,52.95
2023-05-10T16:40:57.671Z,53.36
2023-05-10T16:43:34.429Z,53.36
2023-05-10T16:46:12.030Z,53.17
2023-05-10T16:48:53.213Z,53.50
2023-05-10T16:51:22.312Z,54.14
2023-05-10T16:53:51.020Z,54.51
2023-05-10T16:56:21.763Z,55.46
2023-05-10T16:58:50.526Z,56.62
2023-05-10T17:01:23.226Z,56.59
2023-05-10T17:03:53.227Z,56.28
2023-05-10T17:06:22.309Z,56.97
2023-05-10T17:08:52.352Z,57.43
2023-05-10T17:11:21.930Z,57.78
2023-05-10T17:13:52.550Z,57.75
2023-05-10T17:16:23.125Z,58.40
2023-05-10T17:18:53.325Z,58.42
2023-05-10T17:21:22.349Z,59.40
2023-05-10T17:23:51.477Z,59.03
2023-05-10T17:26:20.541Z,58.92
2023-05-10T17:28:49.941Z,59.32
2023-05-10T17:31:19.191Z,59.47
2023-05-10T17:33:50.175Z,59.53
2023-05-10T17:36:19.291Z,59.92
2023-05-10T17:38:48.037Z,59.48
2023-05-10T17:41:17.119Z,59.56
2023-05-10T17:43:45.853Z,59.52
2023-05-10T17:46:14.943Z,59.79
2023-05-10T17:48:43.860Z,60.49
2023-05-10T17:51:14.155Z,61.01
2023-05-10T17:53:43.343Z,60.68
2023-05-10T17:56:12.117Z,60.41
2023-05-10T17:58:40.863Z,60.61
2023-05-10T18:01:09.975Z,61.35
2023-05-10T18:03:38.950Z,61.04
2023-05-10T18:06:11.992Z,61.68
2023-05-10T18:08:43.139Z,61.89
2023-05-10T18:11:11.844Z,61.87
2023-05-10T18:13:40.608Z,61.16
2023-05-10T18:16:12.785Z,61.89
2023-05-10T18:18:41.627Z,61.21
2023-05-10T18:21:10.525Z,63.08
2023-05-10T18:23:39.534Z,62.94
2023-05-10T18:26:10.738Z,62.73
2023-05-10T18:28:39.620Z,63.57
2023-05-10T18:31:08.892Z,63.95
2023-05-10T18:33:40.742Z,63.68
2023-05-10T18:36:09.768Z,63.83
2023-05-10T18:38:38.879Z,63.85
2023-05-10T18:41:12.379Z,64.12
2023-05-10T18:43:42.508Z,64.68
2023-05-10T18:46:11.252Z,66.00
2023-05-10T18:48:40.700Z,65.35
2023-05-10T18:51:09.521Z,65.37
2023-05-10T18:53:38.614Z,65.60
2023-05-10T18:56:11.464Z,65.81
2023-05-10T18:58:40.364Z,66.56
2023-05-10T19:01:09.198Z,66.97
2023-05-10T19:03:38.052Z,67.47
2023-05-10T19:06:06.781Z,67.96
2023-05-10T19:08:35.516Z,68.28
2023-05-10T19:11:04.197Z,68.06
2023-05-10T19:13:34.336Z,69.24
2023-05-10T19:16:14.056Z,68.87
2023-05-10T19:18:44.130Z,68.44
2023-05-10T19:21:13.889Z,68.48
2023-05-10T19:23:43.192Z,69.19
2023-05-10T19:26:13.885Z,68.86
2023-05-10T19:28:53.946Z,68.30
2023-05-10T19:31:23.410Z,68.15
2023-05-10T19:33:53.081Z,69.38
2023-05-10T19:36:21.999Z,69.80
2023-05-10T19:38:51.204Z,70.34
2023-05-10T19:41:20.360Z,70.24
2023-05-10T19:43:49.145Z,70.59
2023-05-10T19:46:21.031Z,70.73
2023-05-10T19:48:51.052Z,70.53
2023-05-10T19:51:20.000Z,71.09
2023-05-10T19:53:48.746Z,70.55
2023-05-10T19:56:18.510Z,69.79
2023-05-10T19:58:47.420Z,69.80
2023-05-10T20:01:16.235Z,70.52
2023-05-10T20:03:47.624Z,71.54
2023-05-10T20:06:16.387Z,71.69
2023-05-10T20:08:45.114Z,72.17
2023-05-10T20:11:13.941Z,72.07
2023-05-10T20:13:42.805Z,71.23
2023-05-10T20:16:12.276Z,70.75
2023-05-10T20:18:41.222Z,70.98
2023-05-10T20:21:11.390Z,70.56
2023-05-10T20:23:40.281Z,71.31
2023-05-10T20:26:09.366Z,71.83
2023-05-10T20:28:38.255Z,71.52
2023-05-10T20:31:10.298Z,72.50
2023-05-10T20:33:39.054Z,72.51
2023-05-10T20:36:09.651Z,71.66
2023-05-10T20:38:39.860Z,71.42
2023-05-10T20:41:08.575Z,71.79
2023-05-10T20:43:37.706Z,71.55
2023-05-10T20:46:06.696Z,71.88
2023-05-10T20:48:35.587Z,71.34
2023-05-10T20:51:04.512Z,71.50
2023-05-10T20:53:33.569Z,72.56
2023-05-10T20:56:03.804Z,72.12
2023-05-10T20:58:32.770Z,71.21
2023-05-10T21:01:03.220Z,71.34
2023-05-10T21:03:32.036Z,71.75
2023-05-10T21:06:00.777Z,72.57
2023-05-10T21:08:29.488Z,73.33
2023-05-10T21:10:58.260Z,73.13
2023-05-10T21:13:28.471Z,72.26
2023-05-10T21:15:57.249Z,71.63
2023-05-10T21:18:26.082Z,71.44
2023-05-10T21:20:54.894Z,73.01
2023-05-10T21:23:23.584Z,73.74
2023-05-10T21:25:52.287Z,73.20
2023-05-10T21:28:21.040Z,72.43
2023-05-10T21:30:51.140Z,72.39
2023-05-10T21:33:19.794Z,72.51
2023-05-10T21:35:48.583Z,72.56
2023-05-10T21:38:17.416Z,73.29
2023-05-10T21:40:46.112Z,73.63
2023-05-10T21:43:14.804Z,73.95
2023-05-10T21:45:43.566Z,72.84
2023-05-10T21:48:13.753Z,72.65
2023-05-10T21:50:43.823Z,72.41
2023-05-10T21:53:12.629Z,73.11
2023-05-10T21:55:41.339Z,73.54
2023-05-10T21:58:10.025Z,73.27
2023-05-10T22:00:39.074Z,73.30
2023-05-10T22:03:07.965Z,72.78
2023-05-10T22:05:38.198Z,73.04
2023-05-10T22:08:07.948Z,74.67
2023-05-10T22:10:36.587Z,75.20
2023-05-10T22:13:05.344Z,75.56
2023-05-10T22:15:36.377Z,74.63
2023-05-10T22:18:06.122Z,74.00
2023-05-10T22:20:34.885Z,74.38
2023-05-10T22:23:05.026Z,73.83
2023-05-10T22:25:33.749Z,74.16
2023-05-10T22:28:02.700Z,73.25
2023-05-10T22:30:33.052Z,73.74
2023-05-10T22:33:02.021Z,74.66
2023-05-10T22:35:30.811Z,75.03
2023-05-10T22:37:59.495Z,75.49
2023-05-10T22:40:29.574Z,75.78
2023-05-10T22:42:58.482Z,75.05
2023-05-10T22:45:27.620Z,74.12
2023-05-10T22:47:56.494Z,73.89
2023-05-10T22:50:25.999Z,73.48
2023-05-10T22:52:54.713Z,73.71
2023-05-10T22:55:23.817Z,74.84
2023-05-10T22:57:54.667Z,74.18
2023-05-10T23:00:23.545Z,73.54
2023-05-10T23:02:52.982Z,74.24
2023-05-10T23:05:21.745Z,73.66
2023-05-10T23:07:53.316Z,73.81
2023-05-10T23:10:22.176Z,74.33
2023-05-10T23:12:51.022Z,74.35
2023-05-10T23:15:21.205Z,74.35
2023-05-10T23:17:50.005Z,74.75
2023-05-10T23:20:19.236Z,75.24
2023-05-10T23:22:48.249Z,74.50
2023-05-10T23:25:17.136Z,74.24
2023-05-10T23:27:45.924Z,74.21
2023-05-10T23:30:15.065Z,74.30
2023-05-10T23:32:45.191Z,74.55
2023-05-10T23:35:13.962Z,74.27
2023-05-10T23:37:43.205Z,73.82
2023-05-10T23:40:13.564Z,74.24
2023-05-10T23:42:42.390Z,74.52
2023-05-10T23:45:12.211Z,74.53
2023-05-10T23:47:42.039Z,74.58
2023-05-10T23:50:12.967Z,74.99
2023-05-10T23:52:41.757Z,75.64
2023-05-10T23:55:11.981Z,75.79
2023-05-10T23:57:40.680Z,75.21
